Time;durP1;ratioP1;P1;durP2;ratioP2;P2;SDS_P1;SDS_P2;PMS_P1;PMS_P2;Temp;Humidity;BMP_temperature;BMP_pressure;BME280_temperature;BME280_humidity;BME280_pressure;Samples;Min_cycle;Max_cycle;Signal;HPM_P1;HPM_P2
2022/02/14 00:00:14;;;;;;;0.70;0.60;;;;;;;;;;5051233;28;20449;-71
2022/02/14 00:02:41;;;;;;;0.63;0.60;;;;;;;;;;5079417;28;20423;-71
2022/02/14 00:05:09;;;;;;;0.60;0.60;;;;;;;;;;5080574;28;20832;-70
2022/02/14 00:07:36;;;;;;;0.70;0.60;;;;;;;;;;5078942;28;20451;-71
2022/02/14 00:10:05;;;;;;;1.20;1.13;;;;;;;;;;5074681;28;20427;-70
2022/02/14 00:12:34;;;;;;;0.70;0.60;;;;;;;;;;5072587;28;20470;-69
2022/02/14 00:15:02;;;;;;;0.70;0.60;;;;;;;;;;5068148;28;20420;-72
2022/02/14 00:17:30;;;;;;;0.70;0.60;;;;;;;;;;5067223;28;20938;-69
2022/02/14 00:19:57;;;;;;;0.70;0.60;;;;;;;;;;5057056;28;20440;-70
2022/02/14 00:22:25;;;;;;;0.70;0.60;;;;;;;;;;5058079;28;20968;-70
2022/02/14 00:24:52;;;;;;;0.70;0.60;;;;;;;;;;5056586;28;20441;-70
2022/02/14 00:27:19;;;;;;;0.70;0.70;;;;;;;;;;5070475;28;20958;-70
2022/02/14 00:29:48;;;;;;;0.70;0.60;;;;;;;;;;5074324;28;20500;-70
2022/02/14 00:32:20;;;;;;;1.00;0.90;;;;;;;;;;5076493;28;20459;-69
2022/02/14 00:34:50;;;;;;;0.80;0.70;;;;;;;;;;5075465;28;20472;-72
2022/02/14 00:37:17;;;;;;;0.70;0.60;;;;;;;;;;5068351;28;20566;-70
2022/02/14 00:39:45;;;;;;;0.70;0.60;;;;;;;;;;5076424;28;20518;-70
2022/02/14 00:42:11;;;;;;;0.70;0.60;;;;;;;;;;5077112;28;20435;-71
2022/02/14 00:44:39;;;;;;;0.70;0.60;;;;;;;;;;5070837;28;20528;-70
2022/02/14 00:47:06;;;;;;;0.70;0.60;;;;;;;;;;5075174;28;20424;-71
2022/02/14 00:49:32;;;;;;;0.70;0.60;;;;;;;;;;5076789;28;20439;-71
2022/02/14 00:52:00;;;;;;;0.70;0.60;;;;;;;;;;5073103;28;20967;-70
2022/02/14 00:54:27;;;;;;;0.67;0.60;;;;;;;;;;5056968;28;20442;-70
2022/02/14 00:56:55;;;;;;;0.70;0.70;;;;;;;;;;5059525;28;20515;-72
2022/02/14 00:59:23;;;;;;;0.70;0.60;;;;;;;;;;5075267;28;20916;-70
2022/02/14 01:01:50;;;;;;;0.70;0.60;;;;;;;;;;5063091;28;20443;-70
2022/02/14 01:04:17;;;;;;;0.70;0.70;;;;;;;;;;5056644;28;20439;-70
2022/02/14 01:06:44;;;;;;;0.70;0.60;;;;;;;;;;5058559;28;20838;-71
2022/02/14 01:09:13;;;;;;;0.70;0.60;;;;;;;;;;5075335;28;20781;-70
2022/02/14 01:11:40;;;;;;;0.70;0.60;;;;;;;;;;5074487;28;20445;-70
2022/02/14 01:14:12;;;;;;;0.70;0.60;;;;;;;;;;5075966;28;20943;-69
2022/02/14 01:16:39;;;;;;;0.70;0.60;;;;;;;;;;5074411;28;20448;-70
2022/02/14 01:19:06;;;;;;;0.60;0.60;;;;;;;;;;5075123;28;20427;-72
2022/02/14 01:21:33;;;;;;;0.70;0.60;;;;;;;;;;5062369;28;20456;-72
2022/02/14 01:24:00;;;;;;;0.70;0.60;;;;;;;;;;5066892;28;20443;-71
2022/02/14 01:26:28;;;;;;;0.70;0.60;;;;;;;;;;5065909;28;20503;-70
2022/02/14 01:28:55;;;;;;;0.70;0.60;;;;;;;;;;5078673;28;20474;-71
2022/02/14 01:31:21;;;;;;;0.70;0.60;;;;;;;;;;5074320;28;20824;-70
2022/02/14 01:33:48;;;;;;;0.70;0.60;;;;;;;;;;5074792;28;20516;-69
2022/02/14 01:36:15;;;;;;;0.70;0.70;;;;;;;;;;5073647;28;20431;-70
2022/02/14 01:38:43;;;;;;;0.70;0.70;;;;;;;;;;5074788;28;20920;-71
2022/02/14 01:41:15;;;;;;;0.70;0.60;;;;;;;;;;5058647;28;20432;-71
2022/02/14 01:43:47;;;;;;;0.70;0.60;;;;;;;;;;5053936;28;20448;-70
2022/02/14 01:46:16;;;;;;;0.70;0.70;;;;;;;;;;5055669;28;20487;-70
2022/02/14 01:48:51;;;;;;;0.70;0.60;;;;;;;;;;5087729;28;20995;-71
2022/02/14 01:51:23;;;;;;;0.70;0.60;;;;;;;;;;5056263;28;20444;-70
2022/02/14 01:53:55;;;;;;;0.70;0.60;;;;;;;;;;5071381;28;20534;-72
2022/02/14 01:56:31;;;;;;;0.70;0.70;;;;;;;;;;5069731;28;20440;-70
2022/02/14 01:59:08;;;;;;;0.70;0.60;;;;;;;;;;5074366;28;20455;-71
2022/02/14 02:01:39;;;;;;;0.70;0.60;;;;;;;;;;5073513;28;20482;-71
2022/02/14 02:04:12;;;;;;;0.70;0.60;;;;;;;;;;5074346;28;20405;-70
2022/02/14 02:06:42;;;;;;;1.43;1.33;;;;;;;;;;5072416;28;20494;-71
2022/02/14 02:09:11;;;;;;;0.70;0.63;;;;;;;;;;5060901;28;20453;-71
2022/02/14 02:14:33;;;;;;;0.60;0.50;;;;;;;;;;5052778;28;20537;-70
2022/02/14 02:17:05;;;;;;;0.60;0.60;;;;;;;;;;5056725;28;20516;-70
2022/02/14 02:19:39;;;;;;;0.70;0.60;;;;;;;;;;5073326;28;20435;-72
2022/02/14 02:22:13;;;;;;;0.70;0.60;;;;;;;;;;5072877;28;20460;-71
2022/02/14 02:24:53;;;;;;;0.70;0.60;;;;;;;;;;5073082;28;20418;-70
2022/02/14 02:27:25;;;;;;;0.70;0.60;;;;;;;;;;5072583;28;20516;-71
2022/02/14 02:29:57;;;;;;;0.70;0.70;;;;;;;;;;5055881;28;20952;-71
2022/02/14 02:32:29;;;;;;;0.63;0.60;;;;;;;;;;5053849;28;21024;-71
2022/02/14 02:35:01;;;;;;;0.70;0.60;;;;;;;;;;5056581;28;20445;-70
2022/02/14 02:37:32;;;;;;;0.70;0.60;;;;;;;;;;5052274;28;20532;-71
2022/02/14 02:40:04;;;;;;;0.70;0.60;;;;;;;;;;5071490;28;20424;-70
2022/02/14 02:42:36;;;;;;;0.70;0.60;;;;;;;;;;5074662;28;20809;-70
2022/02/14 02:45:08;;;;;;;0.70;0.60;;;;;;;;;;5072518;28;20523;-70
2022/02/14 02:47:36;;;;;;;0.60;0.60;;;;;;;;;;5055504;28;20445;-70
2022/02/14 02:50:04;;;;;;;0.70;0.60;;;;;;;;;;5071424;28;20483;-70
2022/02/14 02:52:30;;;;;;;0.70;0.60;;;;;;;;;;5072080;28;20504;-70
2022/02/14 02:54:57;;;;;;;0.70;0.60;;;;;;;;;;5071086;28;20473;-72
2022/02/14 02:57:26;;;;;;;0.70;0.60;;;;;;;;;;5053027;28;20812;-71
2022/02/14 02:59:53;;;;;;;0.70;0.60;;;;;;;;;;5058616;28;20558;-72
2022/02/14 03:02:21;;;;;;;0.60;0.60;;;;;;;;;;5052980;28;20792;-71
2022/02/14 03:04:48;;;;;;;0.80;0.80;;;;;;;;;;5054137;28;20427;-70
2022/02/14 03:07:15;;;;;;;0.70;0.60;;;;;;;;;;5061553;28;20465;-69
2022/02/14 03:09:47;;;;;;;0.70;0.60;;;;;;;;;;5070948;28;20519;-69
2022/02/14 03:12:18;;;;;;;0.60;0.60;;;;;;;;;;5088430;28;20446;-70
2022/02/14 03:14:48;;;;;;;0.70;0.60;;;;;;;;;;5052826;28;20554;-70
2022/02/14 03:17:16;;;;;;;0.70;0.60;;;;;;;;;;5053867;28;20475;-71
2022/02/14 03:19:44;;;;;;;0.70;0.70;;;;;;;;;;5058390;28;20481;-70
2022/02/14 03:22:11;;;;;;;0.70;0.60;;;;;;;;;;5062310;28;20546;-69
2022/02/14 03:24:38;;;;;;;0.70;0.60;;;;;;;;;;5035828;28;20847;-70
2022/02/14 03:27:05;;;;;;;0.70;0.63;;;;;;;;;;5072375;28;20468;-71
2022/02/14 03:29:32;;;;;;;0.70;0.60;;;;;;;;;;5072266;28;20479;-71
2022/02/14 03:32:00;;;;;;;0.70;0.60;;;;;;;;;;5072566;28;20504;-71
2022/02/14 03:34:27;;;;;;;1.47;1.03;;;;;;;;;;5071120;28;20503;-72
2022/02/14 03:36:53;;;;;;;0.70;0.60;;;;;;;;;;5062034;28;20480;-69
2022/02/14 03:39:20;;;;;;;0.70;0.60;;;;;;;;;;5072200;28;20443;-72
2022/02/14 03:41:47;;;;;;;0.70;0.60;;;;;;;;;;5056276;28;20501;-75
2022/02/14 03:44:14;;;;;;;0.70;0.70;;;;;;;;;;5056615;28;20428;-72
2022/02/14 03:46:41;;;;;;;0.70;0.60;;;;;;;;;;5057311;28;20517;-71
2022/02/14 03:49:09;;;;;;;0.97;0.87;;;;;;;;;;5057121;28;20918;-70
2022/02/14 03:51:36;;;;;;;0.70;0.60;;;;;;;;;;5073223;28;20460;-70
2022/02/14 03:54:03;;;;;;;0.70;0.60;;;;;;;;;;5077273;28;20794;-71
2022/02/14 03:56:30;;;;;;;0.70;0.60;;;;;;;;;;5073243;28;20446;-72
2022/02/14 03:58:59;;;;;;;0.70;0.60;;;;;;;;;;5077106;28;20433;-72
2022/02/14 04:01:26;;;;;;;0.70;0.60;;;;;;;;;;5069408;28;20453;-71
2022/02/14 04:03:53;;;;;;;0.70;0.60;;;;;;;;;;5068381;28;20429;-70
2022/02/14 04:06:21;;;;;;;0.70;0.60;;;;;;;;;;5073296;28;20469;-70
2022/02/14 04:08:48;;;;;;;0.70;0.60;;;;;;;;;;5076767;28;20463;-71
2022/02/14 04:11:15;;;;;;;0.70;0.60;;;;;;;;;;5060988;28;20444;-70
2022/02/14 04:13:42;;;;;;;0.70;0.60;;;;;;;;;;5057297;28;20459;-71
2022/02/14 04:16:08;;;;;;;0.70;0.60;;;;;;;;;;5055937;28;20414;-69
2022/02/14 04:18:35;;;;;;;0.70;0.60;;;;;;;;;;5076379;28;20506;-72
2022/02/14 04:21:01;;;;;;;0.70;0.60;;;;;;;;;;5075420;28;20437;-69
2022/02/14 04:23:29;;;;;;;0.67;0.60;;;;;;;;;;5076794;28;20446;-70
2022/02/14 04:25:57;;;;;;;0.70;0.60;;;;;;;;;;5076650;28;20451;-70
2022/02/14 04:28:24;;;;;;;0.70;0.70;;;;;;;;;;5078615;28;20914;-70
2022/02/14 04:30:50;;;;;;;0.70;0.60;;;;;;;;;;5075177;28;20427;-71
2022/02/14 04:33:17;;;;;;;0.87;0.87;;;;;;;;;;5076491;28;20420;-71
2022/02/14 04:35:44;;;;;;;0.70;0.60;;;;;;;;;;5076714;28;20462;-70
2022/02/14 04:38:10;;;;;;;0.70;0.60;;;;;;;;;;5075153;28;20455;-71
2022/02/14 04:40:39;;;;;;;0.70;0.60;;;;;;;;;;5074820;28;20473;-70
2022/02/14 04:43:06;;;;;;;0.70;0.60;;;;;;;;;;5076446;28;20646;-69
2022/02/14 04:45:34;;;;;;;0.70;0.60;;;;;;;;;;5076268;28;20412;-70
2022/02/14 04:48:00;;;;;;;0.70;0.60;;;;;;;;;;5062569;28;20540;-70
2022/02/14 04:50:27;;;;;;;0.70;0.60;;;;;;;;;;5058447;28;20767;-70
2022/02/14 04:52:54;;;;;;;0.70;0.60;;;;;;;;;;5056760;28;20448;-69
2022/02/14 04:55:21;;;;;;;0.70;0.63;;;;;;;;;;5063846;28;20488;-71
2022/02/14 04:57:49;;;;;;;0.70;0.60;;;;;;;;;;5066926;28;20437;-71
2022/02/14 05:00:17;;;;;;;0.67;0.60;;;;;;;;;;5074585;28;20441;-69
2022/02/14 05:02:44;;;;;;;0.70;0.60;;;;;;;;;;5074707;28;20418;-71
2022/02/14 05:05:11;;;;;;;0.70;0.60;;;;;;;;;;5064275;28;20427;-69
2022/02/14 05:07:40;;;;;;;0.70;0.70;;;;;;;;;;5063705;28;20518;-72
2022/02/14 05:10:07;;;;;;;0.70;0.60;;;;;;;;;;5073825;28;20468;-71
2022/02/14 05:12:34;;;;;;;0.70;0.60;;;;;;;;;;5088139;28;20453;-70
2022/02/14 05:15:06;;;;;;;0.70;0.60;;;;;;;;;;5060802;28;20474;-71
2022/02/14 05:17:37;;;;;;;1.63;0.90;;;;;;;;;;5064514;28;20453;-70
2022/02/14 05:20:06;;;;;;;0.70;0.60;;;;;;;;;;5073702;28;20438;-69
2022/02/14 05:22:33;;;;;;;0.70;0.60;;;;;;;;;;5069637;28;20799;-70
2022/02/14 05:25:00;;;;;;;0.70;0.60;;;;;;;;;;5074803;28;20418;-70
2022/02/14 05:27:27;;;;;;;0.70;0.60;;;;;;;;;;5074408;28;20493;-70
2022/02/14 05:29:54;;;;;;;0.70;0.60;;;;;;;;;;5075347;28;20484;-70
2022/02/14 05:32:25;;;;;;;0.70;0.60;;;;;;;;;;5075493;28;21004;-70
2022/02/14 05:34:52;;;;;;;1.17;1.07;;;;;;;;;;5075510;28;21009;-72
2022/02/14 05:37:19;;;;;;;0.70;0.60;;;;;;;;;;5073813;28;20534;-70
2022/02/14 05:39:47;;;;;;;0.70;0.60;;;;;;;;;;5071800;28;20450;-70
2022/02/14 05:42:14;;;;;;;0.70;0.60;;;;;;;;;;5075389;28;20430;-70
2022/02/14 05:44:41;;;;;;;0.70;0.60;;;;;;;;;;5071924;28;20442;-70
2022/02/14 05:47:09;;;;;;;0.70;0.60;;;;;;;;;;5075585;28;20479;-70
2022/02/14 05:49:37;;;;;;;0.70;0.60;;;;;;;;;;5074046;28;20551;-69
2022/02/14 05:52:07;;;;;;;0.70;0.70;;;;;;;;;;5075480;28;20451;-71
2022/02/14 05:54:33;;;;;;;0.70;0.60;;;;;;;;;;5073539;28;20537;-71
2022/02/14 05:57:00;;;;;;;0.70;0.60;;;;;;;;;;5068423;28;20435;-73
2022/02/14 05:59:28;;;;;;;0.70;0.60;;;;;;;;;;5061971;28;20501;-71
2022/02/14 06:01:55;;;;;;;0.70;0.60;;;;;;;;;;5053543;28;20434;-70
2022/02/14 06:04:22;;;;;;;0.70;0.60;;;;;;;;;;5053473;28;20465;-71
2022/02/14 06:06:50;;;;;;;0.70;0.60;;;;;;;;;;5056924;28;20466;-70
2022/02/14 06:09:17;;;;;;;0.70;0.60;;;;;;;;;;5071591;28;21026;-71
2022/02/14 06:11:44;;;;;;;0.70;0.70;;;;;;;;;;5074558;28;20436;-72
2022/02/14 06:14:11;;;;;;;0.70;0.60;;;;;;;;;;5074257;28;20790;-73
2022/02/14 06:16:38;;;;;;;0.70;0.67;;;;;;;;;;5072373;28;20458;-72
2022/02/14 06:19:05;;;;;;;0.70;0.60;;;;;;;;;;5072741;28;20482;-72
2022/02/14 06:21:32;;;;;;;0.70;0.60;;;;;;;;;;5074095;28;20446;-69
2022/02/14 06:24:01;;;;;;;0.70;0.60;;;;;;;;;;5071869;28;20431;-72
2022/02/14 06:26:32;;;;;;;2.10;1.57;;;;;;;;;;5072555;28;20468;-73
2022/02/14 06:29:00;;;;;;;0.70;0.60;;;;;;;;;;5057430;28;20437;-70
2022/02/14 06:31:26;;;;;;;0.70;0.60;;;;;;;;;;5071808;28;20450;-72
2022/02/14 06:33:53;;;;;;;0.60;0.50;;;;;;;;;;5052355;28;20468;-71
2022/02/14 06:36:23;;;;;;;0.70;0.60;;;;;;;;;;5052922;28;20445;-72
2022/02/14 06:38:50;;;;;;;0.70;0.60;;;;;;;;;;5055582;28;20442;-70
2022/02/14 06:41:18;;;;;;;0.60;0.60;;;;;;;;;;5072037;28;20943;-72
2022/02/14 06:43:46;;;;;;;0.70;0.60;;;;;;;;;;5057114;28;20454;-70
2022/02/14 06:46:13;;;;;;;0.70;0.60;;;;;;;;;;5071595;28;20920;-71
2022/02/14 06:48:39;;;;;;;0.70;0.70;;;;;;;;;;5056611;28;20451;-71
2022/02/14 06:51:07;;;;;;;0.97;0.97;;;;;;;;;;5073122;28;20458;-70
2022/02/14 06:53:34;;;;;;;0.60;0.50;;;;;;;;;;5073129;28;20429;-70
2022/02/14 06:56:05;;;;;;;1.03;0.93;;;;;;;;;;5073962;28;20507;-70
2022/02/14 06:58:34;;;;;;;0.70;0.60;;;;;;;;;;5073529;28;20410;-71
2022/02/14 07:01:00;;;;;;;0.80;0.80;;;;;;;;;;5053478;28;20428;-71
2022/02/14 07:03:28;;;;;;;0.67;0.50;;;;;;;;;;5060778;28;20440;-71
2022/02/14 07:05:55;;;;;;;0.70;0.60;;;;;;;;;;5055991;28;20446;-72
2022/02/14 07:08:22;;;;;;;0.80;0.80;;;;;;;;;;5067513;28;20439;-71
2022/02/14 07:10:49;;;;;;;0.70;0.60;;;;;;;;;;5065036;28;20963;-71
2022/02/14 07:13:15;;;;;;;0.70;0.60;;;;;;;;;;5067140;28;20492;-71
2022/02/14 07:15:44;;;;;;;0.70;0.60;;;;;;;;;;5072149;28;20462;-70
2022/02/14 07:18:13;;;;;;;0.70;0.70;;;;;;;;;;5072023;28;20495;-72
2022/02/14 07:20:40;;;;;;;0.70;0.60;;;;;;;;;;5072192;28;20530;-71
2022/02/14 07:23:07;;;;;;;1.20;1.10;;;;;;;;;;5071915;28;20849;-72
2022/02/14 07:25:35;;;;;;;0.70;0.60;;;;;;;;;;5069929;28;20821;-71
2022/02/14 07:28:02;;;;;;;0.70;0.63;;;;;;;;;;5072493;28;20492;-72
2022/02/14 07:30:31;;;;;;;0.70;0.70;;;;;;;;;;5056239;28;20451;-71
2022/02/14 07:33:00;;;;;;;0.70;0.60;;;;;;;;;;5060255;28;20923;-71
2022/02/14 07:35:31;;;;;;;0.70;0.60;;;;;;;;;;5053411;28;20827;-73
2022/02/14 07:37:58;;;;;;;0.70;0.60;;;;;;;;;;5064687;28;20481;-72
2022/02/14 07:40:25;;;;;;;0.70;0.60;;;;;;;;;;5061374;28;20451;-72
2022/02/14 07:42:53;;;;;;;0.70;0.60;;;;;;;;;;5052180;28;20447;-73
2022/02/14 07:45:21;;;;;;;0.70;0.60;;;;;;;;;;5052899;28;20431;-72
2022/02/14 07:47:48;;;;;;;1.13;1.03;;;;;;;;;;5053502;28;20522;-72
2022/02/14 07:50:19;;;;;;;0.70;0.60;;;;;;;;;;5059337;28;20446;-72
2022/02/14 07:52:46;;;;;;;0.70;0.60;;;;;;;;;;5062786;28;20849;-72
2022/02/14 07:55:14;;;;;;;0.70;0.67;;;;;;;;;;5072214;28;20883;-73
2022/02/14 07:57:42;;;;;;;0.70;0.60;;;;;;;;;;5072033;28;20858;-71
2022/02/14 08:00:11;;;;;;;1.37;1.00;;;;;;;;;;5070846;28;20435;-71
2022/02/14 08:02:40;;;;;;;0.70;0.60;;;;;;;;;;5073337;28;20433;-72
2022/02/14 08:05:07;;;;;;;0.70;0.60;;;;;;;;;;5072691;28;20464;-73
2022/02/14 08:07:39;;;;;;;0.70;0.60;;;;;;;;;;5072248;28;20461;-71
2022/02/14 08:10:27;;;;;;;0.70;0.60;;;;;;;;;;5071046;28;20553;-73
2022/02/14 08:12:54;;;;;;;0.70;0.70;;;;;;;;;;5071984;28;20414;-72
2022/02/14 08:15:21;;;;;;;0.70;0.60;;;;;;;;;;5072420;28;20467;-72
2022/02/14 08:17:50;;;;;;;0.70;0.60;;;;;;;;;;5071455;28;20440;-73
2022/02/14 08:20:17;;;;;;;0.70;0.60;;;;;;;;;;5047970;28;20486;-72
2022/02/14 08:22:46;;;;;;;0.70;0.60;;;;;;;;;;5054381;28;20464;-72
2022/02/14 08:25:13;;;;;;;0.70;0.60;;;;;;;;;;5056440;28;20430;-72
2022/02/14 08:27:42;;;;;;;0.70;0.60;;;;;;;;;;5056840;28;20426;-71
2022/02/14 08:30:09;;;;;;;0.70;0.60;;;;;;;;;;5068026;28;20465;-73
2022/02/14 08:32:37;;;;;;;0.70;0.70;;;;;;;;;;5076333;28;20442;-73
2022/02/14 08:35:04;;;;;;;0.70;0.60;;;;;;;;;;5077072;28;20511;-71
2022/02/14 08:37:56;;;;;;;0.70;0.60;;;;;;;;;;5076905;28;20453;-73
2022/02/14 08:40:23;;;;;;;0.70;0.60;;;;;;;;;;5074049;28;20488;-73
2022/02/14 08:42:51;;;;;;;0.70;0.70;;;;;;;;;;5075100;28;20952;-72
2022/02/14 08:45:19;;;;;;;0.70;0.60;;;;;;;;;;5075378;28;20447;-71
2022/02/14 08:47:46;;;;;;;0.70;0.60;;;;;;;;;;5058869;28;20941;-72
2022/02/14 08:50:13;;;;;;;0.70;0.70;;;;;;;;;;5069845;28;20485;-72
2022/02/14 08:52:40;;;;;;;0.70;0.70;;;;;;;;;;5057717;28;20456;-72
2022/02/14 08:55:08;;;;;;;0.70;0.60;;;;;;;;;;5056098;28;20479;-71
2022/02/14 08:57:35;;;;;;;0.70;0.60;;;;;;;;;;5055095;28;20474;-72
2022/02/14 09:00:04;;;;;;;0.70;0.70;;;;;;;;;;5049479;28;20802;-71
2022/02/14 09:02:31;;;;;;;0.97;0.97;;;;;;;;;;5075735;28;20431;-72
2022/02/14 09:05:00;;;;;;;0.70;0.70;;;;;;;;;;5067386;28;20433;-73
2022/02/14 09:07:27;;;;;;;0.70;0.67;;;;;;;;;;5068446;28;20470;-71
2022/02/14 09:09:57;;;;;;;0.70;0.70;;;;;;;;;;5074183;28;20434;-72
2022/02/14 09:12:25;;;;;;;0.80;0.70;;;;;;;;;;5074455;28;20465;-73
2022/02/14 09:14:52;;;;;;;0.80;0.70;;;;;;;;;;5075150;28;20456;-73
2022/02/14 09:17:19;;;;;;;0.70;0.70;;;;;;;;;;5074850;28;20439;-73
2022/02/14 09:19:48;;;;;;;0.70;0.60;;;;;;;;;;5075282;28;20485;-73
2022/02/14 09:22:15;;;;;;;0.80;0.80;;;;;;;;;;5063022;28;21070;-73
2022/02/14 09:24:41;;;;;;;0.70;0.70;;;;;;;;;;5061916;28;20477;-73
2022/02/14 09:27:10;;;;;;;0.70;0.70;;;;;;;;;;5049385;28;20441;-74
2022/02/14 09:29:39;;;;;;;0.70;0.63;;;;;;;;;;5074215;28;20442;-72
2022/02/14 09:32:06;;;;;;;0.70;0.70;;;;;;;;;;5074256;28;20458;-73
2022/02/14 09:34:33;;;;;;;0.70;0.70;;;;;;;;;;5073767;28;20466;-72
2022/02/14 09:37:00;;;;;;;0.70;0.60;;;;;;;;;;5073656;28;20482;-73
2022/02/14 09:39:30;;;;;;;0.70;0.60;;;;;;;;;;5074488;28;20977;-74
2022/02/14 09:42:00;;;;;;;0.70;0.60;;;;;;;;;;5075189;28;20432;-72
2022/02/14 09:44:27;;;;;;;0.70;0.70;;;;;;;;;;5065262;28;20442;-73
2022/02/14 09:46:55;;;;;;;0.70;0.60;;;;;;;;;;5062648;28;20437;-73
2022/02/14 09:49:23;;;;;;;0.70;0.70;;;;;;;;;;5062719;28;20459;-72
2022/02/14 09:51:50;;;;;;;0.70;0.70;;;;;;;;;;5053426;28;20494;-72
2022/02/14 09:54:17;;;;;;;0.80;0.80;;;;;;;;;;5054632;28;20431;-73
2022/02/14 09:56:45;;;;;;;0.70;0.60;;;;;;;;;;5054334;28;20465;-71
2022/02/14 09:59:14;;;;;;;0.80;0.70;;;;;;;;;;5059505;28;20865;-72
2022/02/14 10:01:43;;;;;;;0.70;0.70;;;;;;;;;;5073263;28;20467;-74
2022/02/14 10:04:11;;;;;;;0.77;0.70;;;;;;;;;;5069941;28;20494;-73
2022/02/14 10:06:39;;;;;;;0.70;0.70;;;;;;;;;;5056740;28;21020;-77
2022/02/14 10:09:09;;;;;;;0.70;0.60;;;;;;;;;;5072943;28;20480;-75
2022/02/14 10:11:37;;;;;;;0.70;0.70;;;;;;;;;;5056394;28;20863;-75
2022/02/14 10:14:13;;;;;;;0.70;0.60;;;;;;;;;;5057236;28;20502;-72
2022/02/14 10:16:56;;;;;;;0.77;0.73;;;;;;;;;;5074691;28;20810;-71
2022/02/14 10:19:25;;;;;;;0.80;0.80;;;;;;;;;;5067333;28;20919;-75
2022/02/14 10:21:54;;;;;;;0.70;0.60;;;;;;;;;;5054629;28;20834;-74
2022/02/14 10:24:21;;;;;;;0.70;0.70;;;;;;;;;;5061879;28;20445;-74
2022/02/14 10:26:50;;;;;;;0.70;0.70;;;;;;;;;;5074494;28;20946;-75
2022/02/14 10:29:19;;;;;;;0.73;0.70;;;;;;;;;;5072249;28;20432;-75
2022/02/14 10:31:47;;;;;;;0.70;0.70;;;;;;;;;;5057015;28;20419;-74
2022/02/14 10:34:16;;;;;;;0.70;0.70;;;;;;;;;;5072790;28;20432;-74
2022/02/14 10:36:47;;;;;;;0.70;0.63;;;;;;;;;;5073748;28;20571;-76
2022/02/14 10:39:18;;;;;;;0.70;0.60;;;;;;;;;;5053756;28;20437;-73
2022/02/14 10:41:46;;;;;;;0.70;0.60;;;;;;;;;;5052693;28;20490;-73
2022/02/14 10:45:07;;;;;;;0.70;0.70;;;;;;;;;;5053135;28;20945;-72
2022/02/14 10:47:06;;;;;;;0.70;0.60;;;;;;;;;;5058121;28;20915;-74
2022/02/14 10:49:34;;;;;;;0.70;0.60;;;;;;;;;;5071649;28;20443;-74
2022/02/14 10:52:04;;;;;;;0.70;0.60;;;;;;;;;;5054570;28;20867;-74
2022/02/14 10:54:36;;;;;;;0.70;0.60;;;;;;;;;;5071732;28;20413;-74
2022/02/14 10:57:03;;;;;;;0.70;0.70;;;;;;;;;;5066896;28;20460;-73
2022/02/14 10:59:31;;;;;;;0.70;0.70;;;;;;;;;;5065629;28;20925;-73
2022/02/14 11:02:04;;;;;;;0.70;0.70;;;;;;;;;;5066234;28;20438;-74
2022/02/14 11:04:35;;;;;;;0.70;0.70;;;;;;;;;;5054201;28;20458;-74
2022/02/14 11:07:02;;;;;;;0.70;0.70;;;;;;;;;;5073869;28;20502;-75
2022/02/14 11:09:30;;;;;;;0.70;0.60;;;;;;;;;;5073373;28;20429;-76
2022/02/14 11:11:58;;;;;;;0.70;0.60;;;;;;;;;;5072387;28;20445;-73
2022/02/14 11:14:26;;;;;;;0.70;0.60;;;;;;;;;;5072528;28;20447;-75
2022/02/14 11:16:53;;;;;;;0.70;0.60;;;;;;;;;;5073801;28;20896;-75
2022/02/14 11:19:22;;;;;;;0.70;0.60;;;;;;;;;;5055988;28;20445;-76
2022/02/14 11:21:49;;;;;;;0.70;0.60;;;;;;;;;;5073158;28;20452;-74
2022/02/14 11:24:20;;;;;;;0.70;0.60;;;;;;;;;;5057750;28;20544;-74
2022/02/14 11:26:55;;;;;;;0.80;0.80;;;;;;;;;;5051845;28;20906;-74
2022/02/14 11:29:27;;;;;;;0.70;0.60;;;;;;;;;;5059640;28;20451;-75
2022/02/14 11:32:09;;;;;;;0.70;0.60;;;;;;;;;;5073690;28;20436;-74
2022/02/14 11:34:50;;;;;;;0.70;0.60;;;;;;;;;;5055266;28;20801;-75
2022/02/14 11:37:19;;;;;;;0.70;0.60;;;;;;;;;;5042602;28;20508;-73
2022/02/14 11:39:45;;;;;;;0.70;0.70;;;;;;;;;;5051513;28;20438;-73
2022/02/14 11:42:14;;;;;;;0.70;0.60;;;;;;;;;;5067282;28;20446;-73
2022/02/14 11:44:42;;;;;;;0.70;0.60;;;;;;;;;;5071106;28;20430;-73
2022/02/14 11:47:10;;;;;;;0.70;0.70;;;;;;;;;;5055867;28;20502;-73
2022/02/14 11:49:38;;;;;;;0.70;0.70;;;;;;;;;;5068535;28;20531;-71
2022/02/14 11:52:35;;;;;;;0.70;0.60;;;;;;;;;;5072739;28;20822;-76
2022/02/14 11:55:04;;;;;;;0.70;0.70;;;;;;;;;;5052451;28;20440;-75
2022/02/14 11:57:35;;;;;;;0.80;0.70;;;;;;;;;;5075054;28;20469;-75
2022/02/14 12:00:19;;;;;;;0.80;0.80;;;;;;;;;;5075220;28;20450;-75
2022/02/14 12:02:54;;;;;;;0.80;0.80;;;;;;;;;;5075558;28;20483;-75
2022/02/14 12:05:38;;;;;;;0.70;0.60;;;;;;;;;;5076029;28;20417;-74
2022/02/14 12:08:05;;;;;;;0.70;0.60;;;;;;;;;;5076382;28;20485;-74
2022/02/14 12:10:42;;;;;;;0.70;0.60;;;;;;;;;;5055536;28;20439;-73
2022/02/14 12:13:13;;;;;;;0.70;0.70;;;;;;;;;;5057766;28;20434;-72
2022/02/14 12:21:04;;;;;;;0.70;0.70;;;;;;;;;;5077258;28;20420;-73
2022/02/14 12:23:56;;;;;;;0.80;0.80;;;;;;;;;;5075410;28;20561;-74
2022/02/14 12:26:24;;;;;;;0.70;0.67;;;;;;;;;;5058560;28;20512;-72
2022/02/14 12:31:48;;;;;;;0.70;0.60;;;;;;;;;;5074663;28;20490;-72
2022/02/14 12:34:22;;;;;;;0.70;0.60;;;;;;;;;;5075113;28;20956;-74
2022/02/14 12:36:57;;;;;;;0.70;0.70;;;;;;;;;;5073394;28;20566;-74
2022/02/14 12:39:27;;;;;;;0.80;0.77;;;;;;;;;;5073513;28;20442;-72
2022/02/14 12:41:55;;;;;;;0.80;0.80;;;;;;;;;;5071247;28;20436;-75
2022/02/14 12:44:28;;;;;;;0.70;0.70;;;;;;;;;;5073284;28;20420;-75
2022/02/14 12:46:55;;;;;;;0.70;0.70;;;;;;;;;;5055955;28;20491;-71
2022/02/14 12:49:22;;;;;;;0.70;0.60;;;;;;;;;;5055377;28;20436;-71
2022/02/14 12:51:50;;;;;;;0.70;0.60;;;;;;;;;;5057096;28;20513;-73
2022/02/14 12:54:17;;;;;;;0.80;0.70;;;;;;;;;;5059084;28;20450;-75
2022/02/14 12:56:44;;;;;;;0.70;0.70;;;;;;;;;;5066607;28;20561;-75
2022/02/14 12:59:12;;;;;;;0.70;0.60;;;;;;;;;;5070785;28;20431;-75
2022/02/14 13:01:41;;;;;;;0.70;0.63;;;;;;;;;;5055049;28;20973;-74
2022/02/14 13:04:10;;;;;;;0.70;0.63;;;;;;;;;;5063460;28;20463;-72
2022/02/14 13:06:39;;;;;;;0.70;0.70;;;;;;;;;;5075275;28;20857;-74
2022/02/14 13:09:21;;;;;;;0.70;0.70;;;;;;;;;;5058494;28;20428;-75
2022/02/14 13:11:49;;;;;;;0.80;0.80;;;;;;;;;;5075728;28;20805;-73
2022/02/14 13:14:30;;;;;;;0.70;0.60;;;;;;;;;;5073685;28;20494;-74
2022/02/14 13:17:03;;;;;;;0.70;0.60;;;;;;;;;;5056658;28;20504;-73
2022/02/14 13:19:33;;;;;;;0.70;0.70;;;;;;;;;;5054736;28;20461;-75
2022/02/14 13:22:04;;;;;;;0.70;0.60;;;;;;;;;;5055942;28;20457;-75
2022/02/14 13:24:34;;;;;;;0.70;0.60;;;;;;;;;;5058928;28;20449;-74
2022/02/14 13:27:06;;;;;;;0.80;0.70;;;;;;;;;;5074295;28;20443;-73
2022/02/14 13:29:36;;;;;;;0.70;0.60;;;;;;;;;;5075630;28;20450;-73
2022/02/14 13:32:05;;;;;;;0.70;0.70;;;;;;;;;;5075129;28;20929;-75
2022/02/14 13:34:32;;;;;;;0.70;0.60;;;;;;;;;;5072643;28;20438;-74
2022/02/14 13:37:00;;;;;;;0.70;0.60;;;;;;;;;;5057549;28;20568;-74
2022/02/14 13:39:27;;;;;;;0.70;0.60;;;;;;;;;;5048709;28;20461;-73
2022/02/14 13:41:55;;;;;;;0.80;0.70;;;;;;;;;;5074051;28;21133;-73
2022/02/14 13:44:22;;;;;;;0.70;0.70;;;;;;;;;;5076159;28;20426;-74
2022/02/14 13:46:50;;;;;;;0.70;0.60;;;;;;;;;;5071882;28;20429;-73
2022/02/14 13:49:35;;;;;;;0.70;0.60;;;;;;;;;;5074687;28;20527;-75
2022/02/14 13:52:03;;;;;;;0.73;0.70;;;;;;;;;;5074669;28;20460;-74
2022/02/14 13:54:30;;;;;;;0.70;0.70;;;;;;;;;;5074237;28;20437;-75
2022/02/14 13:56:57;;;;;;;0.70;0.60;;;;;;;;;;5074238;28;20940;-74
2022/02/14 13:59:28;;;;;;;0.70;0.60;;;;;;;;;;5075655;28;20757;-76
2022/02/14 14:02:08;;;;;;;0.70;0.70;;;;;;;;;;5075403;28;20424;-75
2022/02/14 14:05:15;;;;;;;0.70;0.60;;;;;;;;;;5073812;28;20455;-75
2022/02/14 14:07:43;;;;;;;0.70;0.70;;;;;;;;;;5075390;28;20478;-76
2022/02/14 14:10:10;;;;;;;0.70;0.60;;;;;;;;;;5074070;28;20904;-73
2022/02/14 14:12:44;;;;;;;0.70;0.60;;;;;;;;;;5056694;28;20453;-77
2022/02/14 14:15:12;;;;;;;0.70;0.60;;;;;;;;;;5073347;28;20990;-75
2022/02/14 14:17:39;;;;;;;0.70;0.70;;;;;;;;;;5057462;28;20467;-74
2022/02/14 14:20:07;;;;;;;0.70;0.70;;;;;;;;;;5073715;28;20460;-74
2022/02/14 14:22:36;;;;;;;0.70;0.70;;;;;;;;;;5074577;28;20451;-73
2022/02/14 14:25:04;;;;;;;0.70;0.70;;;;;;;;;;5072405;28;20950;-73
2022/02/14 14:27:32;;;;;;;0.70;0.60;;;;;;;;;;5073072;28;20536;-74
2022/02/14 14:29:59;;;;;;;0.70;0.60;;;;;;;;;;5073341;28;20428;-75
2022/02/14 14:32:29;;;;;;;0.70;0.70;;;;;;;;;;5073115;28;20475;-74
2022/02/14 14:34:56;;;;;;;0.70;0.60;;;;;;;;;;5074104;28;20434;-75
2022/02/14 14:37:23;;;;;;;0.70;0.60;;;;;;;;;;5074242;28;20473;-75
2022/02/14 14:39:51;;;;;;;0.70;0.60;;;;;;;;;;5074004;28;20441;-73
2022/02/14 14:42:18;;;;;;;0.70;0.60;;;;;;;;;;5073886;28;20472;-74
2022/02/14 14:44:44;;;;;;;0.70;0.70;;;;;;;;;;5073118;28;20554;-74
2022/02/14 14:47:11;;;;;;;0.70;0.60;;;;;;;;;;5072917;28;20435;-74
2022/02/14 14:49:39;;;;;;;0.70;0.70;;;;;;;;;;5066991;28;20960;-75
2022/02/14 14:52:09;;;;;;;0.70;0.67;;;;;;;;;;5052850;28;20919;-74
2022/02/14 14:54:36;;;;;;;0.70;0.70;;;;;;;;;;5056018;28;20445;-74
2022/02/14 14:57:05;;;;;;;0.70;0.60;;;;;;;;;;5035474;28;20477;-74
2022/02/14 14:59:35;;;;;;;0.70;0.70;;;;;;;;;;5061165;28;20507;-74
2022/02/14 15:02:02;;;;;;;1.30;1.20;;;;;;;;;;5073965;28;20437;-74
2022/02/14 15:04:29;;;;;;;0.70;0.70;;;;;;;;;;5074229;28;20833;-75